Time;durP1;ratioP1;P1;durP2;ratioP2;P2;SDS_P1;SDS_P2;PMS_P1;PMS_P2;Temp;Humidity;BMP_temperature;BMP_pressure;BME280_temperature;BME280_humidity;BME280_pressure;Samples;Min_cycle;Max_cycle;Signal;HPM_P1;HPM_P2
2023/07/21 00:00:00;;;;;;;6.53;4.70;;;;;;;17.32;75.98;100614.59;687892;28;1389;-80
2023/07/21 00:00:21;;;;;;;6.90;4.90;;;;;;;17.33;75.94;100622.50;690378;28;1158;-80
2023/07/21 00:00:46;;;;;;;7.00;4.97;;;;;;;17.31;76.13;100623.38;682471;28;1478;-80
2023/07/21 00:01:18;;;;;;;6.88;4.90;;;;;;;17.33;76.14;100629.53;677245;28;1145;-81
2023/07/21 00:01:39;;;;;;;7.28;5.10;;;;;;;17.30;76.14;100627.78;676549;29;967;-80
2023/07/21 00:02:01;;;;;;;7.20;5.43;;;;;;;17.25;76.05;100614.63;682468;28;1462;-82
2023/07/21 00:02:22;;;;;;;7.43;5.47;;;;;;;17.30;76.04;100624.25;682575;29;1065;-80
2023/07/21 00:02:46;;;;;;;6.95;5.07;;;;;;;17.29;76.23;100619.88;687981;28;1499;-81
2023/07/21 00:03:08;;;;;;;7.30;5.00;;;;;;;17.29;75.93;100619.88;685317;28;1393;-80
2023/07/21 00:03:30;;;;;;;7.30;5.25;;;;;;;17.29;76.11;100619.88;682600;28;921;-81
2023/07/21 00:03:51;;;;;;;7.07;5.45;;;;;;;17.30;76.20;100616.34;690456;28;1278;-80
2023/07/21 00:04:12;;;;;;;7.25;5.50;;;;;;;17.30;75.91;100621.63;687669;28;1286;-80
2023/07/21 00:04:33;;;;;;;7.13;5.18;;;;;;;17.22;76.14;100611.97;687786;28;1334;-80
2023/07/21 00:04:54;;;;;;;7.47;5.25;;;;;;;17.30;76.06;100613.72;685462;28;1237;-80
2023/07/21 00:05:15;;;;;;;7.65;5.45;;;;;;;17.25;76.04;100619.88;687943;28;1091;-80
2023/07/21 00:05:36;;;;;;;8.98;5.70;;;;;;;17.25;76.27;100613.72;682622;28;1125;-81
2023/07/21 00:05:57;;;;;;;9.77;5.70;;;;;;;17.30;76.08;100622.50;680113;29;1108;-81
2023/07/21 00:06:19;;;;;;;8.73;5.35;;;;;;;17.30;76.04;100621.63;685196;28;1147;-80
2023/07/21 00:06:43;;;;;;;8.98;5.70;;;;;;;17.31;76.02;100623.38;682879;28;1283;-81
2023/07/21 00:07:03;;;;;;;7.65;5.40;;;;;;;17.32;76.14;100623.38;682498;28;1126;-80
2023/07/21 00:07:24;;;;;;;7.93;5.25;;;;;;;17.34;76.11;100624.25;680322;28;1121;-80
2023/07/21 00:07:47;;;;;;;7.30;4.93;;;;;;;17.32;76.26;100625.16;680068;29;1381;-80
2023/07/21 00:08:08;;;;;;;7.82;5.20;;;;;;;17.33;75.88;100621.63;682400;28;1147;-80
2023/07/21 00:08:29;;;;;;;6.83;5.00;;;;;;;17.30;76.14;100617.25;679774;28;1321;-81
2023/07/21 00:08:49;;;;;;;7.97;5.18;;;;;;;17.28;75.99;100615.47;682534;29;1314;-80
2023/07/21 00:09:11;;;;;;;8.48;5.50;;;;;;;17.31;76.25;100619.00;682061;29;1180;-82
2023/07/21 00:09:31;;;;;;;8.32;5.50;;;;;;;17.29;76.12;100611.97;683168;28;1166;-80
2023/07/21 00:09:52;;;;;;;7.45;5.75;;;;;;;17.32;76.32;100620.75;685135;28;1196;-80
2023/07/21 00:10:13;;;;;;;7.03;5.50;;;;;;;17.33;76.17;100621.63;685079;28;1252;-80
2023/07/21 00:10:33;;;;;;;8.57;5.80;;;;;;;17.34;76.15;100629.53;687483;28;1198;-80
2023/07/21 00:10:57;;;;;;;8.82;5.65;;;;;;;17.34;76.07;100618.09;689851;28;1139;-81
2023/07/21 00:11:18;;;;;;;8.35;5.45;;;;;;;17.30;76.33;100617.25;679762;29;1494;-80
2023/07/21 00:11:39;;;;;;;9.20;5.30;;;;;;;17.33;76.06;100621.63;685287;28;1020;-80
2023/07/21 00:11:59;;;;;;;8.60;5.10;;;;;;;17.32;76.22;100620.75;687712;28;1208;-80
2023/07/21 00:12:20;;;;;;;8.77;5.03;;;;;;;17.31;76.03;100620.72;685053;28;1160;-80
2023/07/21 00:12:47;;;;;;;6.18;5.00;;;;;;;17.36;76.16;100625.13;680668;28;1080;-80
2023/07/21 00:13:07;;;;;;;7.70;5.43;;;;;;;17.33;76.24;100617.22;685157;28;1098;-80
2023/07/21 00:13:29;;;;;;;8.65;5.40;;;;;;;17.31;76.20;100612.81;679907;28;1277;-80
2023/07/21 00:13:49;;;;;;;9.02;5.35;;;;;;;17.31;76.00;100613.72;679965;28;1189;-80
2023/07/21 00:14:10;;;;;;;8.03;5.30;;;;;;;17.31;76.09;100615.47;687850;28;1161;-80
2023/07/21 00:14:31;;;;;;;7.68;5.30;;;;;;;17.33;76.17;100626.91;684751;28;1110;-80
2023/07/21 00:14:52;;;;;;;7.43;5.40;;;;;;;17.24;76.10;100604.94;682576;28;1097;-80
2023/07/21 00:15:17;;;;;;;7.50;5.60;;;;;;;17.31;76.15;100619.00;685217;28;1921;-81
2023/07/21 00:15:38;;;;;;;7.50;5.50;;;;;;;17.28;76.04;100612.84;687202;28;1110;-80
2023/07/21 00:15:58;;;;;;;7.45;5.55;;;;;;;17.32;76.10;100620.75;687970;28;1193;-80
2023/07/21 00:16:19;;;;;;;7.77;5.70;;;;;;;17.28;75.86;100616.38;687733;28;1497;-80
2023/07/21 00:16:40;;;;;;;6.95;5.60;;;;;;;17.23;75.97;100608.44;689549;28;1176;-80
2023/07/21 00:17:04;;;;;;;7.43;5.68;;;;;;;17.29;75.90;100618.13;690407;28;1353;-80
2023/07/21 00:17:25;;;;;;;7.00;5.50;;;;;;;17.26;76.01;100618.09;685248;28;1383;-80
2023/07/21 00:17:47;;;;;;;6.43;5.25;;;;;;;17.26;75.88;100615.47;682683;28;1035;-80
2023/07/21 00:18:08;;;;;;;6.30;5.10;;;;;;;17.24;76.20;100620.78;685142;28;997;-80
2023/07/21 00:18:30;;;;;;;6.93;5.20;;;;;;;17.24;76.12;100612.88;679898;29;1017;-80
2023/07/21 00:18:51;;;;;;;7.70;5.50;;;;;;;17.24;76.22;100618.13;685282;28;1036;-80
2023/07/21 00:19:12;;;;;;;8.90;5.65;;;;;;;17.25;75.86;100613.72;687864;28;1063;-80
2023/07/21 00:19:33;;;;;;;9.55;5.70;;;;;;;17.21;76.02;100612.84;685237;28;1271;-81
2023/07/21 00:19:53;;;;;;;11.27;5.55;;;;;;;17.22;76.04;100622.50;690426;28;988;-80
2023/07/21 00:20:19;;;;;;;9.70;5.50;;;;;;;17.23;76.03;100616.34;685105;28;1074;-80
2023/07/21 00:20:40;;;;;;;9.50;5.50;;;;;;;17.13;75.96;100604.94;682642;29;954;-80
2023/07/21 00:21:05;;;;;;;9.40;5.70;;;;;;;17.14;76.00;100611.06;682431;28;1290;-81
2023/07/21 00:21:25;;;;;;;10.90;5.68;;;;;;;17.15;76.11;100619.88;690005;28;1234;-80
2023/07/21 00:21:46;;;;;;;10.65;5.63;;;;;;;17.18;76.13;100619.84;682724;28;1172;-80
2023/07/21 00:22:07;;;;;;;9.90;5.63;;;;;;;17.11;76.18;100603.19;682623;28;1195;-80
2023/07/21 00:22:28;;;;;;;7.90;5.35;;;;;;;17.12;76.02;100612.84;685063;28;1090;-81
2023/07/21 00:22:49;;;;;;;7.05;5.22;;;;;;;17.13;76.15;100610.22;687898;28;976;-83
2023/07/21 00:23:10;;;;;;;7.10;5.28;;;;;;;17.09;75.88;100599.69;682468;28;1049;-80
2023/07/21 00:23:31;;;;;;;7.30;5.50;;;;;;;17.16;76.18;100622.50;682714;28;1515;-81
2023/07/21 00:23:52;;;;;;;7.45;5.63;;;;;;;17.06;76.21;100600.56;685331;28;972;-80
2023/07/21 00:24:13;;;;;;;7.40;5.77;;;;;;;17.18;76.25;100614.56;685175;28;1111;-80
2023/07/21 00:24:33;;;;;;;7.35;5.70;;;;;;;17.18;75.98;100615.47;682371;28;1168;-80
2023/07/21 00:24:54;;;;;;;7.63;5.87;;;;;;;17.13;76.19;100609.31;687850;28;1036;-80
2023/07/21 00:25:14;;;;;;;8.48;5.85;;;;;;;17.15;76.20;100612.81;679845;28;1243;-80
2023/07/21 00:25:35;;;;;;;8.50;5.60;;;;;;;17.19;76.11;100619.84;679128;29;1039;-80
2023/07/21 00:25:56;;;;;;;8.55;5.20;;;;;;;17.05;76.14;100606.72;685349;28;1186;-81
2023/07/21 00:26:17;;;;;;;8.07;5.00;;;;;;;17.08;76.33;100609.31;685071;28;1033;-80
2023/07/21 00:26:37;;;;;;;8.43;5.03;;;;;;;17.22;76.01;100619.00;682438;29;1029;-81
2023/07/21 00:27:01;;;;;;;8.10;5.20;;;;;;;17.25;75.81;100627.78;680254;28;1072;-81
2023/07/21 00:27:21;;;;;;;7.18;5.30;;;;;;;17.13;76.13;100619.88;687455;28;1090;-79
2023/07/21 00:27:43;;;;;;;8.13;5.63;;;;;;;17.08;76.08;100611.09;682721;28;1366;-81
2023/07/21 00:28:04;;;;;;;8.88;5.70;;;;;;;17.08;76.13;100616.38;682335;28;1128;-80
2023/07/21 00:28:25;;;;;;;9.00;5.80;;;;;;;17.12;76.29;100623.38;684991;28;1439;-81
2023/07/21 00:28:46;;;;;;;8.45;5.70;;;;;;;17.22;75.93;100619.88;682554;28;1400;-80
2023/07/21 00:29:06;;;;;;;8.82;5.70;;;;;;;17.22;75.78;100614.59;682428;29;1040;-80
2023/07/21 00:29:29;;;;;;;9.00;5.80;;;;;;;17.19;75.79;100611.94;681935;28;1154;-80
2023/07/21 00:29:50;;;;;;;8.82;5.45;;;;;;;17.13;75.82;100609.31;677175;29;1002;-80
2023/07/21 00:30:11;;;;;;;8.32;5.28;;;;;;;17.12;76.08;100612.84;687651;28;1170;-79
2023/07/21 00:30:33;;;;;;;10.00;5.30;;;;;;;17.08;75.99;100619.88;685005;28;1297;-80
2023/07/21 00:30:54;;;;;;;10.73;5.70;;;;;;;17.13;75.57;100614.59;679816;28;1214;-80
2023/07/21 00:31:14;;;;;;;9.18;5.40;;;;;;;17.10;75.96;100609.34;685086;28;1300;-81
2023/07/21 00:31:35;;;;;;;7.43;5.50;;;;;;;17.09;75.98;100615.50;685051;28;1267;-80
2023/07/21 00:31:56;;;;;;;6.57;5.15;;;;;;;17.03;76.05;100612.88;685427;28;1913;-81
2023/07/21 00:32:18;;;;;;;7.23;5.40;;;;;;;16.98;76.21;100605.81;682467;29;1139;-80
2023/07/21 00:32:40;;;;;;;8.15;5.55;;;;;;;17.03;76.44;100613.72;680344;28;1284;-80
2023/07/21 00:33:01;;;;;;;10.02;5.60;;;;;;;17.05;76.44;100619.88;682389;29;1148;-80
2023/07/21 00:33:25;;;;;;;10.20;5.50;;;;;;;17.03;76.38;100607.59;682430;28;1134;-80
2023/07/21 00:33:45;;;;;;;8.65;5.63;;;;;;;17.04;76.39;100622.53;685273;28;1938;-80
2023/07/21 00:34:08;;;;;;;7.85;6.10;;;;;;;17.01;76.34;100614.63;690333;28;1276;-80
2023/07/21 00:34:29;;;;;;;7.70;6.00;;;;;;;16.94;76.32;100606.72;687790;28;1113;-81
2023/07/21 00:34:53;;;;;;;9.57;6.13;;;;;;;16.97;76.34;100608.47;687726;28;1087;-79
2023/07/21 00:35:13;;;;;;;9.55;5.70;;;;;;;17.01;76.42;100617.25;682864;28;2026;-80
2023/07/21 00:35:34;;;;;;;9.70;5.88;;;;;;;17.01;76.47;100619.91;687361;28;933;-80
2023/07/21 00:35:56;;;;;;;8.00;5.60;;;;;;;16.99;76.44;100622.53;687936;28;1063;-80
2023/07/21 00:36:17;;;;;;;9.40;5.78;;;;;;;16.97;76.24;100619.03;693127;28;1304;-79
2023/07/21 00:36:38;;;;;;;9.68;5.70;;;;;;;16.94;76.30;100619.91;685097;28;1120;-80
2023/07/21 00:36:59;;;;;;;9.30;5.47;;;;;;;16.86;76.55;100611.13;690534;28;910;-79
2023/07/21 00:37:22;;;;;;;8.48;5.28;;;;;;;16.88;76.63;100619.00;687570;28;1199;-80
2023/07/21 00:37:42;;;;;;;8.05;5.30;;;;;;;16.86;76.66;100611.97;685156;28;989;-80
2023/07/21 00:38:04;;;;;;;13.88;6.00;;;;;;;16.80;76.55;100601.47;687753;28;1027;-79
2023/07/21 00:38:25;;;;;;;15.47;6.30;;;;;;;16.86;76.70;100617.25;682366;28;1356;-80
2023/07/21 00:38:47;;;;;;;19.77;6.38;;;;;;;16.84;76.43;100611.13;682652;28;1341;-79
2023/07/21 00:39:09;;;;;;;14.77;5.90;;;;;;;16.82;76.59;100610.25;685224;28;1004;-79
2023/07/21 00:39:29;;;;;;;9.45;5.70;;;;;;;16.82;76.56;100614.63;682551;29;1021;-80
2023/07/21 00:39:50;;;;;;;9.77;5.87;;;;;;;16.87;76.55;100618.16;682544;29;965;-79
2023/07/21 00:40:18;;;;;;;10.60;5.97;;;;;;;16.85;76.66;100614.66;685036;28;1084;-78
2023/07/21 00:40:39;;;;;;;8.75;5.72;;;;;;;16.83;76.25;100619.91;686762;28;980;-80
2023/07/21 00:40:59;;;;;;;7.65;5.40;;;;;;;16.80;76.69;100609.38;687865;28;1040;-79
2023/07/21 00:41:22;;;;;;;9.18;5.95;;;;;;;16.81;76.75;100618.13;685148;28;1044;-80
2023/07/21 00:41:43;;;;;;;9.35;6.18;;;;;;;16.79;76.72;100614.63;685145;28;1310;-80
2023/07/21 00:42:04;;;;;;;9.63;6.23;;;;;;;16.77;76.76;100611.13;687644;28;1120;-79
2023/07/21 00:42:26;;;;;;;9.07;5.97;;;;;;;16.74;77.03;100613.75;685065;28;1036;-79
2023/07/21 00:42:47;;;;;;;12.18;6.25;;;;;;;16.80;76.83;100622.56;687764;28;944;-79
2023/07/21 00:43:08;;;;;;;17.63;6.10;;;;;;;16.80;76.89;100624.28;690282;28;1263;-80
2023/07/21 00:43:29;;;;;;;17.00;6.10;;;;;;;16.77;76.78;100616.41;690162;28;1203;-79
2023/07/21 00:43:50;;;;;;;13.87;6.00;;;;;;;16.75;77.10;100607.59;693141;28;1124;-80
2023/07/21 00:44:12;;;;;;;8.25;5.85;;;;;;;16.71;77.22;100604.97;682443;28;1084;-80
2023/07/21 00:44:36;;;;;;;8.20;5.63;;;;;;;16.70;77.11;100605.84;687667;28;1107;-80
2023/07/21 00:44:57;;;;;;;8.10;5.43;;;;;;;16.76;77.05;100615.50;685094;28;1108;-79
2023/07/21 00:45:18;;;;;;;8.63;5.60;;;;;;;16.67;77.18;100605.84;679686;28;1056;-80
2023/07/21 00:45:39;;;;;;;9.23;5.80;;;;;;;16.69;76.83;100603.22;684289;28;1172;-79
2023/07/21 00:46:00;;;;;;;10.13;6.00;;;;;;;16.69;77.13;100609.38;685057;28;1215;-80
2023/07/21 00:46:23;;;;;;;10.10;6.10;;;;;;;16.72;77.16;100614.63;682247;29;1175;-79
2023/07/21 00:46:44;;;;;;;9.50;6.00;;;;;;;16.72;77.23;100617.28;687778;28;1289;-79
2023/07/21 00:47:05;;;;;;;8.98;5.90;;;;;;;16.68;77.01;100607.63;690325;28;1226;-80
2023/07/21 00:47:27;;;;;;;9.15;5.85;;;;;;;16.68;77.21;100607.63;684924;28;1033;-79
2023/07/21 00:47:48;;;;;;;9.15;6.15;;;;;;;16.65;77.20;100602.34;685268;28;1011;-79
2023/07/21 00:48:09;;;;;;;9.73;6.47;;;;;;;16.67;77.33;100604.97;682456;28;1016;-80
2023/07/21 00:48:33;;;;;;;9.25;6.50;;;;;;;16.67;76.96;100611.09;687787;28;1377;-79
2023/07/21 00:48:54;;;;;;;9.23;6.25;;;;;;;16.65;77.14;100609.38;682554;28;1160;-79
2023/07/21 00:49:15;;;;;;;9.00;6.22;;;;;;;16.66;77.00;100606.72;682288;28;1233;-79
2023/07/21 00:49:37;;;;;;;8.75;6.20;;;;;;;16.62;77.04;100602.34;682403;29;1087;-79
2023/07/21 00:49:59;;;;;;;9.85;6.38;;;;;;;16.61;77.13;100595.31;687950;28;1176;-80
2023/07/21 00:50:22;;;;;;;9.90;6.18;;;;;;;16.66;77.42;100606.72;690412;28;1090;-79
2023/07/21 00:50:57;;;;;;;9.95;5.95;;;;;;;16.62;77.19;100610.25;688003;28;764;-79
2023/07/21 00:51:19;;;;;;;8.20;5.97;;;;;;;16.57;77.27;100598.81;685158;28;2145;-79
2023/07/21 00:51:40;;;;;;;8.60;5.97;;;;;;;16.63;77.31;100606.72;688023;28;1093;-80
2023/07/21 00:52:01;;;;;;;8.63;6.05;;;;;;;16.62;77.28;100607.63;690294;28;1089;-79
2023/07/21 00:52:23;;;;;;;9.48;6.40;;;;;;;16.57;77.24;100604.09;687573;28;1088;-80
2023/07/21 00:52:44;;;;;;;9.27;6.32;;;;;;;16.54;77.35;100598.84;687814;28;950;-80
2023/07/21 00:53:06;;;;;;;9.48;6.20;;;;;;;16.61;77.16;100604.97;687803;28;1019;-79
2023/07/21 00:53:27;;;;;;;9.75;6.20;;;;;;;16.53;77.25;100603.22;687705;28;949;-79
2023/07/21 00:53:47;;;;;;;9.63;6.40;;;;;;;16.52;77.19;100590.03;682503;28;1402;-79
2023/07/21 00:54:08;;;;;;;14.90;6.38;;;;;;;16.55;77.01;100600.59;685043;28;1194;-79
2023/07/21 00:54:29;;;;;;;13.93;6.00;;;;;;;16.56;77.14;100599.69;687762;28;1403;-79
2023/07/21 00:54:51;;;;;;;14.40;6.20;;;;;;;16.57;77.11;100598.81;685530;28;1277;-79
2023/07/21 00:55:12;;;;;;;8.50;5.88;;;;;;;16.54;77.17;100593.56;685018;28;2346;-79
2023/07/21 00:55:34;;;;;;;8.80;6.05;;;;;;;16.58;77.08;100601.47;687271;28;1002;-79
2023/07/21 00:55:57;;;;;;;8.55;6.05;;;;;;;16.52;76.98;100595.28;688347;28;1381;-79
2023/07/21 00:56:18;;;;;;;9.50;6.40;;;;;;;16.47;77.30;100591.81;685045;28;1283;-79
2023/07/21 00:56:39;;;;;;;8.90;5.90;;;;;;;16.53;77.11;100597.09;682605;29;954;-79
2023/07/21 00:56:59;;;;;;;9.05;6.20;;;;;;;16.52;77.33;100609.34;685023;28;1144;-79
2023/07/21 00:57:22;;;;;;;8.75;6.07;;;;;;;16.48;77.19;100598.81;685011;28;1199;-79
2023/07/21 00:57:43;;;;;;;8.00;6.00;;;;;;;16.39;77.58;100583.88;685136;28;1062;-80
2023/07/21 00:58:07;;;;;;;8.07;6.00;;;;;;;16.44;77.41;100597.94;685551;28;1261;-79
2023/07/21 00:58:30;;;;;;;8.63;5.97;;;;;;;16.39;77.56;100590.03;682430;28;1033;-79
2023/07/21 00:58:52;;;;;;;8.73;6.20;;;;;;;16.44;77.46;100603.22;677286;29;914;-79
2023/07/21 00:59:13;;;;;;;9.02;6.25;;;;;;;16.46;77.68;100595.31;685362;28;1239;-79
2023/07/21 00:59:34;;;;;;;8.98;6.53;;;;;;;16.37;77.69;100585.63;682513;28;1015;-79
2023/07/21 00:59:55;;;;;;;9.85;6.45;;;;;;;16.41;77.67;100588.28;680359;28;1237;-79
2023/07/21 01:00:16;;;;;;;10.65;6.18;;;;;;;16.40;77.69;100583.88;679705;29;1307;-79
2023/07/21 01:00:38;;;;;;;10.40;5.93;;;;;;;16.38;77.70;100588.28;684819;28;1350;-79
2023/07/21 01:00:59;;;;;;;9.95;5.70;;;;;;;16.40;77.79;100585.63;682498;28;1326;-81
2023/07/21 01:01:20;;;;;;;8.05;5.50;;;;;;;16.38;77.81;100583.03;680319;28;1150;-79
2023/07/21 01:01:40;;;;;;;7.57;5.40;;;;;;;16.42;77.77;100589.16;690393;28;1189;-79
2023/07/21 01:02:01;;;;;;;8.20;5.80;;;;;;;16.40;77.60;100590.91;684935;28;1112;-79
2023/07/21 01:02:22;;;;;;;8.63;5.95;;;;;;;16.36;77.78;100582.16;677053;28;1311;-80
2023/07/21 01:02:43;;;;;;;9.43;6.53;;;;;;;16.41;77.93;100587.41;679378;29;1202;-79
2023/07/21 01:03:05;;;;;;;9.00;6.53;;;;;;;16.36;77.90;100579.50;682270;28;1150;-79
2023/07/21 01:03:26;;;;;;;7.75;5.95;;;;;;;16.33;77.65;100579.50;685606;28;1190;-79
2023/07/21 01:03:46;;;;;;;8.77;5.60;;;;;;;16.39;77.97;100584.78;682480;29;1077;-79
2023/07/21 01:04:07;;;;;;;8.70;5.70;;;;;;;16.40;77.80;100581.25;682408;29;981;-79
2023/07/21 01:04:30;;;;;;;9.90;6.10;;;;;;;16.39;77.68;100573.34;687666;28;1158;-80
2023/07/21 01:04:51;;;;;;;8.13;6.00;;;;;;;16.42;77.61;100579.50;688014;28;1106;-79
2023/07/21 01:05:12;;;;;;;8.32;5.75;;;;;;;16.39;77.55;100573.34;679847;29;1045;-79
2023/07/21 01:05:36;;;;;;;7.95;5.75;;;;;;;16.37;77.29;100576.00;679358;29;935;-79
2023/07/21 01:05:57;;;;;;;8.65;6.03;;;;;;;16.41;77.34;100576.88;687308;28;1224;-79
2023/07/21 01:06:19;;;;;;;8.15;5.93;;;;;;;16.41;77.47;100580.38;684979;28;1209;-79
2023/07/21 01:06:41;;;;;;;8.38;6.32;;;;;;;16.43;77.45;100583.03;683089;28;1164;-79
2023/07/21 01:07:06;;;;;;;8.15;6.32;;;;;;;16.39;77.36;100576.88;684756;28;1352;-79
2023/07/21 01:07:30;;;;;;;9.60;6.75;;;;;;;16.38;77.52;100577.75;680543;28;1126;-79
2023/07/21 01:07:51;;;;;;;9.65;6.78;;;;;;;16.38;77.67;100575.13;682302;29;1292;-79
2023/07/21 01:08:14;;;;;;;8.80;6.45;;;;;;;16.40;77.28;100575.09;684940;28;2001;-79
2023/07/21 01:08:37;;;;;;;8.13;5.85;;;;;;;16.35;77.49;100574.25;682301;29;1260;-79
2023/07/21 01:09:01;;;;;;;7.63;5.80;;;;;;;16.37;77.47;100577.75;684911;28;1394;-79
2023/07/21 01:09:22;;;;;;;6.95;5.65;;;;;;;16.34;77.42;100570.72;687538;28;1837;-80
2023/07/21 01:09:43;;;;;;;7.70;5.70;;;;;;;16.33;77.54;100573.38;685274;28;1759;-79
2023/07/21 01:10:05;;;;;;;7.50;5.40;;;;;;;16.36;77.57;100576.88;684922;28;1017;-79
2023/07/21 01:10:28;;;;;;;9.52;5.95;;;;;;;16.29;77.59;100572.50;679656;29;1002;-79
2023/07/21 01:10:50;;;;;;;8.90;5.80;;;;;;;16.31;77.62;100573.34;682326;28;1032;-79
2023/07/21 01:11:11;;;;;;;8.70;5.85;;;;;;;16.35;77.60;100584.78;684865;28;1238;-79
2023/07/21 01:11:32;;;;;;;7.30;5.30;;;;;;;16.31;77.52;100576.84;682337;29;1143;-79
2023/07/21 01:11:54;;;;;;;7.40;5.43;;;;;;;16.33;77.50;100583.91;687766;28;1136;-80
2023/07/21 01:12:15;;;;;;;7.22;5.32;;;;;;;16.30;77.57;100587.41;690259;28;1253;-80
2023/07/21 01:12:36;;;;;;;7.82;5.53;;;;;;;16.26;77.68;100572.47;685031;28;1188;-80
2023/07/21 01:12:58;;;;;;;7.93;5.65;;;;;;;16.24;77.44;100575.09;679635;29;962;-80
2023/07/21 01:13:20;;;;;;;9.10;6.10;;;;;;;16.26;77.72;100578.63;685051;28;1120;-79
2023/07/21 01:13:41;;;;;;;9.02;6.28;;;;;;;16.29;77.59;100583.88;684793;28;1335;-79
2023/07/21 01:14:03;;;;;;;8.65;6.13;;;;;;;16.30;77.71;100579.50;684943;28;1179;-79
2023/07/21 01:14:24;;;;;;;7.88;5.78;;;;;;;16.31;77.68;100581.25;682247;28;1259;-79
2023/07/21 01:14:45;;;;;;;8.10;6.10;;;;;;;16.29;77.62;100577.75;687829;28;1239;-79
2023/07/21 01:15:07;;;;;;;8.68;6.22;;;;;;;16.32;77.78;100583.00;685053;28;1973;-79
2023/07/21 01:15:30;;;;;;;8.32;5.88;;;;;;;16.31;77.69;100583.88;679853;29;1406;-79
2023/07/21 01:15:54;;;;;;;8.35;5.75;;;;;;;16.28;77.80;100576.84;684556;28;1276;-80
2023/07/21 01:16:16;;;;;;;9.68;6.10;;;;;;;16.28;77.69;100575.97;685028;28;1415;-79
2023/07/21 01:16:43;;;;;;;11.00;6.47;;;;;;;16.30;77.90;100576.88;684534;28;1693;-79
2023/07/21 01:17:07;;;;;;;10.75;6.53;;;;;;;16.30;77.87;100575.09;682311;28;1344;-79
2023/07/21 01:17:29;;;;;;;8.65;6.20;;;;;;;16.23;77.86;100567.16;684545;28;1200;-80
2023/07/21 01:17:51;;;;;;;7.40;5.75;;;;;;;16.25;77.97;100574.22;679810;29;1244;-79
2023/07/21 01:18:16;;;;;;;7.70;5.70;;;;;;;16.23;77.91;100569.81;687706;28;1250;-80
2023/07/21 01:18:38;;;;;;;8.25;5.93;;;;;;;16.24;77.94;100574.19;687592;28;1247;-79
2023/07/21 01:19:01;;;;;;;9.20;6.18;;;;;;;16.25;77.63;100568.97;683095;28;1213;-79
2023/07/21 01:19:22;;;;;;;9.50;6.30;;;;;;;16.25;77.61;100574.22;679691;29;1297;-80
2023/07/21 01:19:48;;;;;;;9.07;6.10;;;;;;;16.28;77.55;100573.34;685207;28;1239;-81
2023/07/21 01:20:14;;;;;;;8.10;5.97;;;;;;;16.23;77.59;100573.28;685212;28;1257;-79
2023/07/21 01:20:36;;;;;;;8.15;6.10;;;;;;;16.21;77.52;100568.94;684885;28;1446;-79
2023/07/21 01:20:57;;;;;;;8.70;6.05;;;;;;;16.22;77.64;100565.41;687621;28;1465;-79
2023/07/21 01:21:35;;;;;;;10.50;6.03;;;;;;;16.17;77.66;100566.28;684957;28;1130;-79
2023/07/21 01:22:24;;;;;;;10.38;6.20;;;;;;;16.14;77.79;100558.38;680196;28;1425;-79
2023/07/21 01:22:51;;;;;;;9.85;6.40;;;;;;;16.21;77.68;100568.94;683976;28;1406;-79
2023/07/21 01:23:27;;;;;;;9.25;6.05;;;;;;;16.22;77.53;100571.53;679044;29;1118;-79
2023/07/21 01:23:58;;;;;;;7.65;5.70;;;;;;;16.19;77.38;100574.19;681259;29;1089;-80
2023/07/21 01:24:26;;;;;;;8.70;5.80;;;;;;;16.18;77.64;100565.41;681825;29;1384;-79
2023/07/21 01:24:52;;;;;;;9.13;6.20;;;;;;;16.17;77.62;100563.63;684796;28;1164;-79
2023/07/21 01:25:14;;;;;;;9.25;6.28;;;;;;;16.16;77.67;100561.00;681997;29;1358;-80
2023/07/21 01:25:38;;;;;;;8.85;6.10;;;;;;;16.10;77.52;100553.97;684617;28;1001;-79
2023/07/21 01:26:00;;;;;;;8.82;6.13;;;;;;;16.12;77.70;100559.25;685115;28;997;-80
2023/07/21 01:26:22;;;;;;;9.98;6.38;;;;;;;16.12;77.47;100557.47;682139;28;1199;-80
2023/07/21 01:26:43;;;;;;;9.82;6.22;;;;;;;16.14;77.85;100566.28;682495;28;1001;-80
2023/07/21 01:27:06;;;;;;;9.27;6.43;;;;;;;16.15;77.98;100565.41;682365;28;1202;-80
2023/07/21 01:27:27;;;;;;;9.00;6.50;;;;;;;16.11;77.85;100557.50;684992;28;936;-80
2023/07/21 01:27:50;;;;;;;8.32;6.40;;;;;;;16.09;77.90;100560.13;682433;29;982;-80
2023/07/21 01:28:14;;;;;;;9.00;6.22;;;;;;;16.08;77.92;100552.22;682066;28;1355;-80
2023/07/21 01:28:39;;;;;;;9.18;6.10;;;;;;;16.15;78.04;100561.88;682316;29;1073;-80
2023/07/21 01:29:00;;;;;;;9.13;6.28;;;;;;;16.06;77.80;100544.34;682275;28;1309;-80
2023/07/21 01:29:23;;;;;;;9.45;6.18;;;;;;;16.07;77.92;100550.47;687951;28;1377;-80
2023/07/21 01:29:45;;;;;;;9.25;6.03;;;;;;;16.11;77.86;100547.84;687743;28;1023;-80
2023/07/21 01:30:13;;;;;;;9.30;5.82;;;;;;;16.22;77.85;100562.78;684915;28;1125;-80
2023/07/21 01:30:35;;;;;;;8.77;6.15;;;;;;;16.12;77.79;100544.31;682336;28;1065;-80
2023/07/21 01:30:57;;;;;;;8.55;6.30;;;;;;;16.20;77.57;100557.50;681964;28;1088;-80
2023/07/21 01:31:19;;;;;;;9.00;6.60;;;;;;;16.16;77.63;100551.38;684946;28;1114;-80
2023/07/21 01:31:41;;;;;;;8.90;6.30;;;;;;;16.21;77.48;100550.50;687897;28;932;-80
2023/07/21 01:32:04;;;;;;;10.20;6.60;;;;;;;16.21;77.46;100553.13;690411;28;1085;-80
2023/07/21 01:32:26;;;;;;;10.02;6.70;;;;;;;16.15;77.86;100548.72;692997;28;1127;-80
2023/07/21 01:32:49;;;;;;;10.57;7.00;;;;;;;16.11;77.78;100547.84;687740;28;1208;-80
2023/07/21 01:33:11;;;;;;;9.70;7.00;;;;;;;16.13;77.69;100550.47;684940;28;1242;-81
2023/07/21 01:33:32;;;;;;;8.85;6.70;;;;;;;16.08;77.88;100541.69;682396;29;1004;-81
2023/07/21 01:33:55;;;;;;;8.80;6.50;;;;;;;16.07;77.95;100545.19;682233;29;1393;-81
2023/07/21 01:34:17;;;;;;;9.20;6.40;;;;;;;16.10;77.98;100548.72;687700;28;961;-80
2023/07/21 01:34:39;;;;;;;9.80;6.43;;;;;;;16.13;78.07;100555.75;684894;28;1028;-80
2023/07/21 01:35:00;;;;;;;10.00;6.60;;;;;;;16.07;78.00;100535.56;685064;28;1381;-80
2023/07/21 01:35:22;;;;;;;10.50;6.50;;;;;;;16.14;78.05;100547.84;684873;28;1908;-80
2023/07/21 01:35:43;;;;;;;10.57;6.85;;;;;;;16.10;77.97;100543.44;687059;28;1125;-80
2023/07/21 01:36:05;;;;;;;10.55;7.00;;;;;;;16.07;78.11;100538.19;684750;28;1239;-79
2023/07/21 01:36:26;;;;;;;9.35;6.70;;;;;;;16.13;78.03;100551.38;687529;28;1120;-80
2023/07/21 01:36:48;;;;;;;8.40;6.13;;;;;;;16.07;78.20;100534.66;687656;28;1416;-80
2023/07/21 01:37:11;;;;;;;9.10;6.10;;;;;;;16.12;78.17;100552.22;690401;28;1176;-80
2023/07/21 01:37:32;;;;;;;9.90;6.07;;;;;;;16.12;77.96;100541.69;685005;28;1024;-80
2023/07/21 01:37:55;;;;;;;10.07;6.50;;;;;;;16.05;78.06;100534.69;687701;28;1196;-80
2023/07/21 01:38:17;;;;;;;9.52;6.60;;;;;;;16.07;78.01;100538.19;690147;28;1416;-80
2023/07/21 01:38:39;;;;;;;10.20;7.00;;;;;;;16.13;78.05;100551.38;687581;28;1187;-80
2023/07/21 01:39:00;;;;;;;9.77;6.75;;;;;;;16.06;78.07;100543.44;687686;28;1368;-80
2023/07/21 01:39:21;;;;;;;10.02;6.57;;;;;;;16.10;78.11;100546.09;684992;28;1247;-80
2023/07/21 01:39:43;;;;;;;10.10;6.38;;;;;;;16.09;78.19;100539.06;685033;28;1360;-80
2023/07/21 01:40:08;;;;;;;10.45;6.60;;;;;;;16.10;78.00;100546.09;687700;28;1268;-80
2023/07/21 01:40:29;;;;;;;8.55;6.50;;;;;;;16.08;78.04;100549.56;682078;28;1266;-80
2023/07/21 01:41:13;;;;;;;8.88;6.63;;;;;;;16.12;77.97;100546.09;679370;29;1259;-80
2023/07/21 01:41:48;;;;;;;9.13;6.50;;;;;;;16.12;78.09;100549.59;682529;29;838;-80
2023/07/21 01:42:10;;;;;;;10.90;6.93;;;;;;;16.09;78.14;100551.38;682423;28;1453;-80
2023/07/21 01:42:30;;;;;;;10.82;6.90;;;;;;;16.06;78.16;100539.06;684520;28;1240;-80
2023/07/21 01:42:52;;;;;;;11.23;6.85;;;;;;;16.12;78.46;100552.22;685834;28;1093;-80
2023/07/21 01:43:14;;;;;;;9.35;6.40;;;;;;;16.14;78.16;100554.84;687630;28;948;-80
2023/07/21 01:43:37;;;;;;;9.98;6.55;;;;;;;16.14;78.12;100546.97;684887;28;985;-80
2023/07/21 01:43:58;;;;;;;9.95;6.68;;;;;;;16.18;78.01;100560.13;682276;28;1012;-80
2023/07/21 01:44:21;;;;;;;10.13;6.80;;;;;;;16.15;78.17;100543.44;690224;28;1205;-80
2023/07/21 01:44:43;;;;;;;11.90;6.93;;;;;;;16.14;78.03;100542.59;687626;28;1453;-80
2023/07/21 01:45:04;;;;;;;11.43;6.85;;;;;;;16.13;78.10;100539.94;685511;28;1037;-80
2023/07/21 01:45:25;;;;;;;10.90;6.90;;;;;;;16.08;78.07;100532.03;687582;28;1152;-80
2023/07/21 01:45:46;;;;;;;9.55;7.10;;;;;;;16.10;78.16;100535.56;684419;28;894;-80